Flight Track Log - Related Links

Times and Time Zones

All times are in EDT time to prevent confusion due to time zone crossing. See the CSH9140 flight status page for this flight to view local times or setup timezone preferences in your user account.

Time Position Orientation Groundspeed Altitude Reporting Facility
EDT Latitude Longitude Course Direction KTS MPH feet Rate Location/Type
Wed 05:48:00 AM 36.9814 116.0321 140° Southeast  Level Estimated
Wed 05:49:00 AM 36.9088 116.1049 141° Southeast  Level Estimated
Wed 05:50:00 AM 36.8362 116.1776 141° Southeast  Level Estimated
Wed 05:51:00 AM 36.7635 116.2502 141° Southeast  Level Estimated
Wed 05:52:00 AM 36.6907 116.3226 141° Southeast  Level Estimated
Wed 05:53:00 AM 36.6179 116.3949 141° Southeast  Level Estimated
Wed 05:54:00 AM 36.5451 116.4670 141° Southeast  Level Estimated
Wed 05:55:00 AM 36.4722 116.5390 142° Southeast  Level Estimated
Wed 05:56:00 AM 36.3993 116.6109 142° Southeast  Level Estimated
Wed 05:57:00 AM 36.3263 116.6827 142° Southeast  Level Estimated
Wed 05:58:00 AM 36.2533 116.7543 142° Southeast  Level Estimated
Wed 05:59:00 AM 36.1802 116.8258 142° Southeast  Level Estimated
Wed 06:00:00 AM 36.1071 116.8971 142° Southeast  Level Estimated
Wed 06:01:00 AM 36.0340 116.9683 142° Southeast  Level Estimated
Wed 06:02:00 AM 35.9608 117.0394 142° Southeast  Level Estimated
Wed 06:03:00 AM 35.8876 117.1103 142° Southeast  Level Estimated
Wed 06:04:00 AM 35.8143 117.1811 142° Southeast  Level Estimated
Wed 06:05:00 AM 35.7410 117.2518 142° Southeast  Level Estimated
Wed 06:06:00 AM 35.6677 117.3224 142° Southeast  Level Estimated
Wed 06:07:00 AM 35.5943 117.3928 142° Southeast  Level Estimated
Wed 06:08:00 AM 35.5209 117.4631 142° Southeast  Level Estimated
Wed 06:09:00 AM 35.4474 117.5333 142° Southeast  Level Estimated
Wed 06:10:00 AM 35.3739 117.6033 142° Southeast  Level Estimated
Wed 06:11:00 AM 35.3003 117.6732 142° Southeast  Level Estimated
Wed 06:12:00 AM 35.2267 117.7430 142° Southeast  Level Estimated
Wed 06:13:00 AM 35.1531 117.8127 142° Southeast  Level Estimated
Wed 06:14:00 AM 35.0794 117.8822 142° Southeast  Level Estimated
Wed 06:15:00 AM 35.0057 117.9516 142° Southeast  Level Estimated
Wed 06:16:00 AM 34.9320 118.0209 142° Southeast  Level Estimated
Wed 06:17:00 AM 34.8582 118.0900 142° Southeast  Level Estimated
Wed 06:18:00 AM 34.7844 118.1591 142° Southeast  Level Estimated
Wed 06:19:00 AM 34.7105 118.2280 143° Southeast  Level Estimated
Wed 06:20:00 AM 34.6366 118.2968 143° Southeast  Level Estimated
Wed 06:21:00 AM 34.5626 118.3654 143° Southeast  Level Estimated
Wed 06:22:00 AM 34.4887 118.4340 143° Southeast  Level Estimated
Wed 06:23:00 AM 34.4146 118.5024 143° Southeast  Level Estimated
Wed 06:24:00 AM 34.3406 118.5707 143° Southeast  Level Estimated
Wed 06:25:00 AM 34.2665 118.6389 143° Southeast  Level Estimated
Wed 06:26:00 AM 34.1924 118.7069 143° Southeast  Level Estimated
Wed 06:27:00 AM 34.1182 118.7749 143° Southeast  Level Estimated
Wed 06:28:00 AM 34.0440 118.8427 143° Southeast  Level Estimated
Wed 06:29:00 AM 33.9697 118.9104 143° Southeast  Level Estimated
Wed 06:30:00 AM 33.8955 118.9780 143° Southeast  Level Estimated
Wed 06:31:00 AM 33.8211 119.0454 143° Southeast  Level Estimated
Wed 06:32:00 AM 33.7468 119.1128 143° Southeast  Level Estimated
Wed 06:33:00 AM 33.6724 119.1800 143° Southeast  Level Estimated
Wed 06:34:00 AM 33.5979 119.2471 143° Southeast  Level Estimated
Wed 06:35:00 AM 33.5235 119.3141 143° Southeast  Level Estimated
Wed 06:36:00 AM 33.4490 119.3810 143° Southeast  Level Estimated
Wed 06:37:00 AM 33.3745 119.4478 143° Southeast  Level Estimated
Wed 06:38:00 AM 33.2999 119.5145 143° Southeast  Level Estimated
Wed 06:39:00 AM 33.2253 119.5810 143° Southeast  Level Estimated
Wed 06:40:00 AM 33.1506 119.6474 143° Southeast  Level Estimated
Wed 06:41:00 AM 33.0759 119.7138 143° Southeast  Level Estimated
Wed 06:42:00 AM 33.0012 119.7800 143° Southeast  Level Estimated
Wed 06:43:00 AM 32.9265 119.8460 143° Southeast  Level Estimated
Wed 06:44:00 AM 32.8517 119.9120 143° Southeast  Level Estimated
Wed 06:45:00 AM 32.7769 119.9779 143° Southeast  Level Estimated
Wed 06:46:00 AM 32.7020 120.0436 144° Southeast  Level Estimated
Wed 06:47:00 AM 32.6271 120.1093 144° Southeast  Level Estimated
Wed 06:48:00 AM 32.5522 120.1748 144° Southeast  Level Estimated
Wed 06:49:00 AM 32.4773 120.2403 144° Southeast  Level Estimated
Wed 06:50:00 AM 32.4023 120.3056 144° Southeast  Level Estimated
Wed 06:51:00 AM 32.3310 120.3676 144° Southeast  Level Estimated
Wed 06:52:00 AM 32.2596 120.4295 144° Southeast  Level Estimated
Wed 06:53:00 AM 32.1883 120.4912 144° Southeast  Level Estimated
Wed 06:54:00 AM 32.1169 120.5529 144° Southeast  Level Estimated
Wed 06:55:00 AM 32.0454 120.6145 144° Southeast  Level Estimated
Wed 06:56:00 AM 31.9740 120.6760 144° Southeast  Level Estimated
Wed 06:57:00 AM 31.9025 120.7374 144° Southeast  Level Estimated
Wed 06:58:00 AM 31.8310 120.7988 144° Southeast  Level Estimated
Wed 06:59:00 AM 31.7594 120.8600 144° Southeast  Level Estimated
Wed 07:00:00 AM 31.6879 120.9211 144° Southeast  Level Estimated
Wed 07:01:00 AM 31.6162 120.9821 144° Southeast  Level Estimated
Wed 07:02:00 AM 31.5446 121.0430 144° Southeast  Level Estimated
Wed 07:03:00 AM 31.4729 121.1039 144° Southeast  Level Estimated
Wed 07:04:00 AM 31.4013 121.1646 144° Southeast  Level Estimated
Wed 07:05:00 AM 31.3295 121.2253 144° Southeast  Level Estimated
Wed 07:06:00 AM 31.2578 121.2858 144° Southeast  Level Estimated
Wed 07:07:00 AM 31.1979 121.3363 144° Southeast  Level Estimated
Wed 07:08:00 AM 31.1979 121.3363 North  Level Estimated
Wed 07:09:00 AM 31.1979 121.3363 North  Level Estimated
Wed 07:10:00 AM 31.1979 121.3363 North  Level Estimated
Wed 07:11:00 AM 31.1979 121.3363 North  Level Estimated
Wed 07:12:00 AM 31.1979 121.3363 North  Level Estimated
Wed 07:13:00 AM 31.1979 121.3363 North  Level Estimated

Login

Don't have an account? Register now (free) for customized features, flight alerts, and more!